createdAt,value
2022-10-06T00:01:59.554Z,96.30
2022-10-06T00:04:28.824Z,96.32
2022-10-06T00:09:37.404Z,96.28
2022-10-06T00:12:07.177Z,96.50
2022-10-06T00:14:36.396Z,96.48
2022-10-06T00:17:13.290Z,96.68
2022-10-06T00:19:42.354Z,96.83
2022-10-06T00:22:11.406Z,96.38
2022-10-06T00:24:45.670Z,96.82
2022-10-06T00:27:15.232Z,96.83
2022-10-06T00:29:44.613Z,96.81
2022-10-06T00:32:15.745Z,97.28
2022-10-06T00:34:45.041Z,97.32
2022-10-06T00:37:14.290Z,97.39
2022-10-06T00:39:43.655Z,97.10
2022-10-06T00:42:24.032Z,96.86
2022-10-06T00:45:03.091Z,96.50
2022-10-06T00:47:36.238Z,96.91
2022-10-06T00:50:06.499Z,96.42
2022-10-06T00:52:35.717Z,96.24
2022-10-06T00:55:08.877Z,95.92
2022-10-06T00:57:39.339Z,96.40
2022-10-06T01:00:14.753Z,96.43
2022-10-06T01:02:50.564Z,96.13
2022-10-06T01:05:29.566Z,96.39
2022-10-06T01:08:03.942Z,96.14
2022-10-06T01:10:32.994Z,96.24
2022-10-06T01:13:10.071Z,96.48
2022-10-06T01:15:44.320Z,96.68
2022-10-06T01:18:18.251Z,96.42
2022-10-06T01:20:59.569Z,96.41
2022-10-06T01:23:33.557Z,96.80
2022-10-06T01:26:06.845Z,96.41
2022-10-06T01:28:36.579Z,96.74
2022-10-06T01:31:09.947Z,96.67
2022-10-06T01:33:39.546Z,96.32
2022-10-06T01:36:09.379Z,96.28
2022-10-06T01:38:40.397Z,96.10
2022-10-06T01:41:09.748Z,95.80
2022-10-06T01:43:38.827Z,95.79
2022-10-06T01:46:08.819Z,95.60
2022-10-06T01:48:38.485Z,95.74
2022-10-06T01:51:15.642Z,95.78
2022-10-06T01:53:46.776Z,95.66
2022-10-06T01:56:15.950Z,95.47
2022-10-06T01:58:45.560Z,95.49
2022-10-06T02:01:15.040Z,94.82
2022-10-06T02:03:44.262Z,94.55
2022-10-06T02:06:13.694Z,94.83
2022-10-06T02:08:47.143Z,94.80
2022-10-06T02:11:16.807Z,94.78
2022-10-06T02:13:49.046Z,94.32
2022-10-06T02:16:18.397Z,94.56
2022-10-06T02:18:47.755Z,94.69
2022-10-06T02:21:19.105Z,94.61
2022-10-06T02:23:50.367Z,93.89
2022-10-06T02:26:20.036Z,94.02
2022-10-06T02:28:51.491Z,93.65
2022-10-06T02:31:25.256Z,93.59
2022-10-06T02:33:54.528Z,93.80
2022-10-06T02:36:24.812Z,93.79
2022-10-06T02:39:02.497Z,93.61
2022-10-06T02:41:37.469Z,94.15
2022-10-06T02:44:11.727Z,94.12
2022-10-06T02:46:44.330Z,93.92
2022-10-06T02:49:13.742Z,94.33
2022-10-06T02:51:49.094Z,94.10
2022-10-06T02:54:26.390Z,93.72
2022-10-06T02:56:55.575Z,93.47
2022-10-06T02:59:24.635Z,93.43
2022-10-06T03:02:04.717Z,93.30
2022-10-06T03:04:33.909Z,93.25
2022-10-06T03:07:04.188Z,92.85
2022-10-06T03:09:44.816Z,92.78
2022-10-06T03:12:16.494Z,92.98
2022-10-06T03:14:47.138Z,92.92
2022-10-06T03:17:16.306Z,92.60
2022-10-06T03:19:51.448Z,92.84
2022-10-06T03:22:21.455Z,93.05
2022-10-06T03:25:03.587Z,92.90
2022-10-06T03:27:32.900Z,92.48
2022-10-06T03:30:06.158Z,92.42
2022-10-06T03:32:37.759Z,92.72
2022-10-06T03:35:07.848Z,92.43
2022-10-06T03:37:37.179Z,91.98
2022-10-06T03:40:15.013Z,91.99
2022-10-06T03:42:44.550Z,91.92
2022-10-06T03:45:14.042Z,92.22
2022-10-06T03:47:43.457Z,92.12
2022-10-06T03:50:12.875Z,92.27
2022-10-06T03:52:42.091Z,92.44
2022-10-06T03:55:22.650Z,92.35
2022-10-06T03:57:57.082Z,91.91
2022-10-06T04:00:26.176Z,92.20
2022-10-06T04:02:55.278Z,92.01
2022-10-06T04:05:34.984Z,92.26
2022-10-06T04:08:04.212Z,92.42
2022-10-06T04:10:35.265Z,92.40
2022-10-06T04:13:07.284Z,92.40
2022-10-06T04:15:36.217Z,92.87
2022-10-06T04:18:06.171Z,91.93
2022-10-06T04:20:35.845Z,92.58
2022-10-06T04:23:05.571Z,92.36
2022-10-06T04:25:36.924Z,92.84
2022-10-06T04:28:06.196Z,92.81
2022-10-06T04:30:35.564Z,92.47
2022-10-06T04:33:04.737Z,92.55
2022-10-06T04:35:33.819Z,92.76
2022-10-06T04:38:04.236Z,92.65
2022-10-06T04:40:33.868Z,92.68
2022-10-06T04:43:05.323Z,92.59
2022-10-06T04:45:35.284Z,92.56
2022-10-06T04:48:04.585Z,91.92
2022-10-06T04:50:33.824Z,92.24
2022-10-06T04:53:08.821Z,91.42
2022-10-06T04:55:38.105Z,91.50
2022-10-06T04:58:14.577Z,91.50
2022-10-06T05:00:44.497Z,91.08
2022-10-06T05:03:14.088Z,91.19
2022-10-06T05:05:43.487Z,90.65
2022-10-06T05:08:12.678Z,90.99
2022-10-06T05:10:41.943Z,90.95
2022-10-06T05:13:15.188Z,90.79
2022-10-06T05:15:44.371Z,90.62
2022-10-06T05:18:18.872Z,90.45
2022-10-06T05:20:57.448Z,90.73
2022-10-06T05:23:27.967Z,90.61
2022-10-06T05:26:07.796Z,90.40
2022-10-06T05:28:43.976Z,90.18
2022-10-06T05:31:17.787Z,89.41
2022-10-06T05:33:47.605Z,88.91
2022-10-06T05:36:24.542Z,88.01
2022-10-06T05:38:55.782Z,88.07
2022-10-06T05:41:28.312Z,87.05
2022-10-06T05:44:05.999Z,87.39
2022-10-06T05:46:47.023Z,87.21
2022-10-06T05:49:16.369Z,87.09
2022-10-06T05:51:57.352Z,86.97
2022-10-06T05:54:33.237Z,86.94
2022-10-06T05:57:02.736Z,87.27
2022-10-06T05:59:36.744Z,86.91
2022-10-06T06:02:11.665Z,86.35
2022-10-06T06:04:44.228Z,85.75
2022-10-06T06:07:25.199Z,84.91
2022-10-06T06:09:54.610Z,85.33
2022-10-06T06:12:23.664Z,85.04
2022-10-06T06:15:25.872Z,85.15
2022-10-06T06:18:01.173Z,85.97
2022-10-06T06:23:10.856Z,86.03
2022-10-06T06:25:40.043Z,86.13
2022-10-06T06:28:14.418Z,85.70
2022-10-06T06:30:45.583Z,86.13
2022-10-06T06:33:14.919Z,86.07
2022-10-06T06:35:44.183Z,85.35
2022-10-06T06:38:13.458Z,85.79
2022-10-06T06:40:42.625Z,85.61
2022-10-06T06:43:19.191Z,85.79
2022-10-06T06:46:23.733Z,85.89
2022-10-06T06:49:03.817Z,86.54
2022-10-06T06:51:36.456Z,86.14
2022-10-06T06:56:54.816Z,85.06
2022-10-06T06:59:32.582Z,85.12
2022-10-06T07:02:09.374Z,84.63
2022-10-06T07:04:41.343Z,84.95
2022-10-06T07:07:13.321Z,84.34
2022-10-06T07:09:43.827Z,84.54
2022-10-06T07:12:15.188Z,84.32
2022-10-06T07:15:10.789Z,83.73
2022-10-06T07:18:16.460Z,82.67
2022-10-06T07:20:58.640Z,82.89
2022-10-06T07:23:46.275Z,82.30
2022-10-06T07:26:19.858Z,82.49
2022-10-06T07:28:49.643Z,82.24
2022-10-06T07:31:20.604Z,81.72
2022-10-06T07:33:53.117Z,80.71
2022-10-06T07:36:23.028Z,80.93
2022-10-06T07:38:57.364Z,81.31
2022-10-06T07:41:26.638Z,81.48
2022-10-06T07:43:59.395Z,81.40
2022-10-06T07:46:32.886Z,81.69
2022-10-06T07:49:19.016Z,80.42
2022-10-06T07:51:49.743Z,80.48
2022-10-06T07:57:15.915Z,80.04
2022-10-06T08:00:00.557Z,79.06
2022-10-06T08:02:41.726Z,78.78
2022-10-06T08:05:13.497Z,79.04
2022-10-06T08:07:42.810Z,78.94
2022-10-06T08:10:12.710Z,78.33
2022-10-06T08:12:41.970Z,78.19
2022-10-06T08:15:13.276Z,77.95
2022-10-06T08:17:42.877Z,77.96
2022-10-06T08:20:16.660Z,77.33
2022-10-06T08:22:45.762Z,77.03
2022-10-06T08:25:15.302Z,76.94
2022-10-06T08:27:53.433Z,76.69
2022-10-06T08:30:26.746Z,75.92
2022-10-06T08:32:58.136Z,75.26
2022-10-06T08:35:30.221Z,74.44
2022-10-06T08:38:04.403Z,74.65
2022-10-06T08:40:34.830Z,75.11
2022-10-06T08:43:17.998Z,75.25
2022-10-06T08:45:49.936Z,76.31
2022-10-06T08:48:29.785Z,77.08
2022-10-06T08:51:18.295Z,78.09
2022-10-06T08:53:59.036Z,77.85
2022-10-06T08:56:33.426Z,77.96
2022-10-06T08:59:05.378Z,77.93
2022-10-06T09:01:43.032Z,77.83
2022-10-06T09:04:19.114Z,78.19
2022-10-06T09:06:59.915Z,77.92
2022-10-06T09:09:54.338Z,79.41
2022-10-06T09:12:37.971Z,79.15
2022-10-06T09:15:25.366Z,79.34
2022-10-06T09:18:01.521Z,80.15
2022-10-06T09:20:39.790Z,81.27
2022-10-06T09:23:17.351Z,81.34
2022-10-06T09:25:47.098Z,80.90
2022-10-06T09:28:18.408Z,81.31
2022-10-06T09:30:50.111Z,82.50
2022-10-06T09:33:40.435Z,83.01
2022-10-06T09:38:57.203Z,83.94
2022-10-06T09:41:36.195Z,83.97
2022-10-06T09:44:08.881Z,84.00
2022-10-06T09:46:43.690Z,83.83
2022-10-06T09:49:20.804Z,84.04
2022-10-06T09:52:10.499Z,85.30
2022-10-06T09:54:43.005Z,84.35
2022-10-06T09:57:18.146Z,84.08
2022-10-06T09:59:48.810Z,84.06
2022-10-06T10:02:29.009Z,84.15
2022-10-06T10:04:59.231Z,84.12
2022-10-06T10:07:30.825Z,84.26
2022-10-06T10:10:25.973Z,84.44
2022-10-06T10:12:56.748Z,84.25
2022-10-06T10:15:28.985Z,84.51
2022-10-06T10:17:59.912Z,84.83
2022-10-06T10:20:38.960Z,84.35
2022-10-06T10:26:19.257Z,81.74
2022-10-06T10:29:15.227Z,80.48
2022-10-06T10:31:52.277Z,79.54
2022-10-06T10:34:52.775Z,78.61
2022-10-06T10:37:29.921Z,77.92
2022-10-06T10:40:03.976Z,78.51
2022-10-06T10:42:40.556Z,78.34
2022-10-06T10:45:24.193Z,77.99
2022-10-06T10:47:53.363Z,77.92
2022-10-06T10:50:32.538Z,77.94
2022-10-06T10:53:15.249Z,77.22
2022-10-06T10:55:48.726Z,76.11
2022-10-06T10:58:25.569Z,76.04
2022-10-06T11:01:12.289Z,75.58
2022-10-06T11:03:56.195Z,75.59
2022-10-06T11:06:51.240Z,75.34
2022-10-06T11:09:24.798Z,75.16
2022-10-06T11:12:18.504Z,75.34
2022-10-06T11:14:59.007Z,75.62
2022-10-06T11:17:43.847Z,75.50
2022-10-06T11:20:38.973Z,75.53
2022-10-06T11:23:43.396Z,75.12
2022-10-06T11:26:24.606Z,75.45
2022-10-06T11:29:02.835Z,75.06
2022-10-06T11:31:40.193Z,74.84
2022-10-06T11:34:14.760Z,75.70
2022-10-06T11:36:57.710Z,76.28
2022-10-06T11:39:34.699Z,77.06
2022-10-06T11:42:15.329Z,77.12
2022-10-06T11:45:02.950Z,77.85
2022-10-06T11:47:46.805Z,77.42
2022-10-06T11:50:35.427Z,78.12
2022-10-06T11:53:28.112Z,77.65
2022-10-06T11:56:28.442Z,78.80
2022-10-06T11:59:16.593Z,79.19
2022-10-06T12:01:55.951Z,79.55
2022-10-06T12:04:28.345Z,80.10
2022-10-06T12:07:07.269Z,80.12
2022-10-06T12:09:52.954Z,79.86
2022-10-06T12:13:06.333Z,79.00
2022-10-06T12:18:50.177Z,79.14
2022-10-06T12:21:46.326Z,79.61
2022-10-06T12:24:43.021Z,79.92
2022-10-06T12:27:25.767Z,79.57
2022-10-06T12:30:04.015Z,79.26
2022-10-06T12:32:45.961Z,79.55
2022-10-06T12:35:25.838Z,79.58
2022-10-06T12:38:00.018Z,79.76
2022-10-06T12:40:57.458Z,79.98
2022-10-06T12:44:00.280Z,79.42
2022-10-06T12:46:39.348Z,78.78
2022-10-06T12:56:33.896Z,78.60
2022-10-06T12:59:24.982Z,80.14
2022-10-06T13:01:58.013Z,80.47
2022-10-06T13:04:40.404Z,80.44
2022-10-06T13:07:19.554Z,80.18
2022-10-06T13:09:51.323Z,79.41
2022-10-06T13:12:31.229Z,79.80
2022-10-06T13:15:21.866Z,79.97
2022-10-06T13:18:05.774Z,80.48
2022-10-06T13:20:42.547Z,79.74
2022-10-06T13:26:08.129Z,79.74
2022-10-06T13:28:51.237Z,79.81
2022-10-06T13:31:24.356Z,80.35
2022-10-06T13:33:57.291Z,81.03
2022-10-06T13:36:30.676Z,81.39
2022-10-06T13:39:00.337Z,81.43
2022-10-06T13:41:33.060Z,81.37
2022-10-06T13:44:20.733Z,81.42
2022-10-06T13:46:55.567Z,81.63
2022-10-06T13:49:35.120Z,81.67
2022-10-06T13:52:11.451Z,81.57
2022-10-06T13:54:48.435Z,81.37
2022-10-06T13:57:36.688Z,81.09
2022-10-06T14:00:24.247Z,81.45
2022-10-06T14:02:56.835Z,80.93
2022-10-06T14:05:36.200Z,81.14
2022-10-06T14:08:19.798Z,81.52
2022-10-06T14:10:58.345Z,81.85
2022-10-06T14:13:30.757Z,81.97
2022-10-06T14:16:03.996Z,81.79
2022-10-06T14:18:39.462Z,82.62
2022-10-06T14:21:20.625Z,82.51
2022-10-06T14:23:52.414Z,82.07
2022-10-06T14:26:21.901Z,81.76
2022-10-06T14:28:53.553Z,81.89
2022-10-06T14:31:32.933Z,82.37
2022-10-06T14:34:02.954Z,82.30
2022-10-06T14:36:34.641Z,82.66
2022-10-06T14:39:13.394Z,82.55
2022-10-06T14:44:17.666Z,82.50
2022-10-06T14:46:50.328Z,82.40
2022-10-06T14:51:59.646Z,82.14
2022-10-06T14:54:29.248Z,82.46
2022-10-06T14:56:58.451Z,82.40
2022-10-06T15:02:11.541Z,82.40
2022-10-06T15:04:40.660Z,82.50
2022-10-06T15:10:03.193Z,82.95
2022-10-06T15:12:37.407Z,82.92
2022-10-06T15:15:12.425Z,83.31
2022-10-06T15:17:43.792Z,83.15
2022-10-06T15:20:13.976Z,83.10
2022-10-06T15:22:43.318Z,82.99
2022-10-06T15:25:33.925Z,83.81
2022-10-06T15:28:18.645Z,83.51
2022-10-06T15:30:56.539Z,83.67
2022-10-06T15:33:31.654Z,84.03
2022-10-06T15:36:17.805Z,84.64
2022-10-06T15:41:27.233Z,84.26
2022-10-06T15:43:56.947Z,84.54
2022-10-06T15:46:34.755Z,84.50
2022-10-06T15:49:07.256Z,85.04
2022-10-06T15:51:46.890Z,85.30
2022-10-06T15:54:18.920Z,85.31
2022-10-06T15:56:48.913Z,85.08
2022-10-06T15:59:20.919Z,85.49
2022-10-06T16:01:57.298Z,85.27
2022-10-06T16:04:35.161Z,85.89
2022-10-06T16:07:10.264Z,85.66
2022-10-06T16:09:43.407Z,86.13
2022-10-06T16:12:15.923Z,85.81
2022-10-06T16:14:50.825Z,86.10
2022-10-06T16:17:25.423Z,85.95
2022-10-06T16:19:56.565Z,85.78
2022-10-06T16:22:25.933Z,85.58
2022-10-06T16:24:55.015Z,85.58
2022-10-06T16:27:24.271Z,85.73
2022-10-06T16:29:53.524Z,85.71
2022-10-06T16:32:22.815Z,86.04
2022-10-06T16:34:59.109Z,86.00
2022-10-06T16:37:28.404Z,86.16
2022-10-06T16:39:57.501Z,86.14
2022-10-06T16:42:44.827Z,85.75
2022-10-06T16:45:14.683Z,86.26
2022-10-06T16:47:43.755Z,86.25
2022-10-06T16:50:15.582Z,86.32
2022-10-06T16:52:44.304Z,85.72
2022-10-06T16:55:13.434Z,85.71
2022-10-06T16:57:47.655Z,86.15
2022-10-06T17:00:17.167Z,86.29
2022-10-06T17:02:46.280Z,86.17
2022-10-06T17:05:17.457Z,86.53
2022-10-06T17:07:46.622Z,86.47
2022-10-06T17:10:21.459Z,87.10
2022-10-06T17:12:51.202Z,86.54
2022-10-06T17:15:20.447Z,86.97
2022-10-06T17:17:49.644Z,87.30
2022-10-06T17:20:25.832Z,87.83
2022-10-06T17:22:55.165Z,87.59
2022-10-06T17:25:24.155Z,87.57
2022-10-06T17:27:53.546Z,87.60
2022-10-06T17:30:22.960Z,87.57
2022-10-06T17:32:54.684Z,87.77
2022-10-06T17:35:25.858Z,88.01
2022-10-06T17:37:56.176Z,87.76
2022-10-06T17:40:25.607Z,88.21
2022-10-06T17:42:55.547Z,87.85
2022-10-06T17:45:25.347Z,88.16
2022-10-06T17:48:05.962Z,88.71
2022-10-06T17:50:37.218Z,88.83
2022-10-06T17:53:12.491Z,88.84
2022-10-06T17:55:48.940Z,88.99
2022-10-06T17:58:18.893Z,88.59
2022-10-06T18:00:48.066Z,89.09
2022-10-06T18:03:26.936Z,89.53
2022-10-06T18:06:00.182Z,89.57
2022-10-06T18:08:30.989Z,89.55
2022-10-06T18:11:13.175Z,89.70
2022-10-06T18:13:42.673Z,89.52
2022-10-06T18:16:22.939Z,90.44
2022-10-06T18:18:54.525Z,89.86
2022-10-06T18:21:27.845Z,89.86
2022-10-06T18:23:57.608Z,90.15
2022-10-06T18:26:26.712Z,90.29
2022-10-06T18:28:55.862Z,90.41
2022-10-06T18:31:25.332Z,90.39
2022-10-06T18:36:46.691Z,90.11
2022-10-06T18:39:16.102Z,90.01
2022-10-06T18:41:45.879Z,90.34
2022-10-06T18:44:40.671Z,90.61
2022-10-06T18:47:27.732Z,91.43
2022-10-06T18:50:02.915Z,91.12
2022-10-06T18:52:34.842Z,91.56
2022-10-06T18:55:08.995Z,91.51
2022-10-06T18:57:48.534Z,92.04
2022-10-06T19:00:20.956Z,92.48
2022-10-06T19:02:51.724Z,92.42
2022-10-06T19:05:20.898Z,92.75
2022-10-06T19:07:55.718Z,93.58
2022-10-06T19:10:25.285Z,93.20
2022-10-06T19:12:54.522Z,93.32
2022-10-06T19:15:23.602Z,93.51
2022-10-06T19:17:57.735Z,93.25
2022-10-06T19:20:27.029Z,93.19
2022-10-06T19:22:58.143Z,93.05
2022-10-06T19:25:30.156Z,93.17
2022-10-06T19:27:59.470Z,92.67
2022-10-06T19:30:28.915Z,92.99
2022-10-06T19:32:58.479Z,93.05
2022-10-06T19:35:27.769Z,92.94
2022-10-06T19:37:58.910Z,93.39
2022-10-06T19:43:00.565Z,93.73
2022-10-06T19:45:29.848Z,93.62
2022-10-06T19:47:59.816Z,92.97
2022-10-06T19:50:29.838Z,93.30
2022-10-06T19:53:01.069Z,93.15
2022-10-06T19:55:30.947Z,92.76
2022-10-06T19:58:00.175Z,92.30
2022-10-06T20:00:30.145Z,92.71
2022-10-06T20:03:00.627Z,93.18
2022-10-06T20:08:21.911Z,93.19
2022-10-06T20:10:51.007Z,93.35
2022-10-06T20:13:20.123Z,93.56
2022-10-06T20:15:49.325Z,93.07
2022-10-06T20:18:18.508Z,93.46
2022-10-06T20:21:03.240Z,93.60
2022-10-06T20:23:34.527Z,93.34
2022-10-06T20:26:20.716Z,93.21
2022-10-06T20:28:50.710Z,92.98
2022-10-06T20:31:29.050Z,93.22
2022-10-06T20:34:00.117Z,92.87
2022-10-06T20:36:36.695Z,92.95
2022-10-06T20:39:21.861Z,92.84
2022-10-06T20:41:51.602Z,93.26
2022-10-06T20:44:21.702Z,92.94
2022-10-06T20:46:56.313Z,93.02
2022-10-06T20:49:25.618Z,93.37
2022-10-06T20:51:54.737Z,93.22
2022-10-06T20:54:34.273Z,93.30
2022-10-06T20:57:09.036Z,92.72
2022-10-06T20:59:43.637Z,92.55
2022-10-06T21:02:12.934Z,93.07
2022-10-06T21:04:43.127Z,93.30
2022-10-06T21:07:12.414Z,93.45
2022-10-06T21:09:48.650Z,93.53
2022-10-06T21:12:25.520Z,93.42
2022-10-06T21:14:56.437Z,92.97
2022-10-06T21:17:25.483Z,92.96
2022-10-06T21:22:32.032Z,93.15
2022-10-06T21:25:03.118Z,93.81
2022-10-06T21:27:32.360Z,93.21
2022-10-06T21:30:13.158Z,93.41
2022-10-06T21:32:42.556Z,93.11
2022-10-06T21:35:12.098Z,93.24
2022-10-06T21:37:42.500Z,93.59
2022-10-06T21:42:49.542Z,93.75
2022-10-06T21:45:21.020Z,93.50
2022-10-06T21:47:58.490Z,93.53
2022-10-06T21:50:27.479Z,93.75
2022-10-06T21:52:56.556Z,93.45
2022-10-06T21:55:32.844Z,94.07
2022-10-06T21:58:07.395Z,94.51
2022-10-06T22:00:41.661Z,94.58
2022-10-06T22:03:11.084Z,95.57
2022-10-06T22:05:40.111Z,95.70
2022-10-06T22:08:09.277Z,96.21
2022-10-06T22:10:40.329Z,96.74
2022-10-06T22:13:09.420Z,96.94
2022-10-06T22:15:38.703Z,97.80
2022-10-06T22:18:07.795Z,97.82
2022-10-06T22:20:36.868Z,98.17
2022-10-06T22:23:05.991Z,98.51
2022-10-06T22:25:35.071Z,98.74
2022-10-06T22:28:06.238Z,99.19
2022-10-06T22:30:35.358Z,98.33
2022-10-06T22:33:04.467Z,98.79
2022-10-06T22:35:38.694Z,99.40
2022-10-06T22:38:08.015Z,98.98
2022-10-06T22:40:36.993Z,98.98
2022-10-06T22:43:13.314Z,99.17
2022-10-06T22:45:42.529Z,99.28
2022-10-06T22:48:11.579Z,99.54
2022-10-06T22:50:45.696Z,99.00
2022-10-06T22:53:16.439Z,99.33
2022-10-06T22:55:46.006Z,98.70
2022-10-06T22:58:22.054Z,98.79
2022-10-06T23:00:51.574Z,98.48
2022-10-06T23:03:21.194Z,98.08
2022-10-06T23:05:58.050Z,98.35
2022-10-06T23:08:34.867Z,97.84
2022-10-06T23:11:08.847Z,98.38
2022-10-06T23:13:40.608Z,97.83
2022-10-06T23:16:17.519Z,97.80
2022-10-06T23:18:52.817Z,97.59
2022-10-06T23:21:24.217Z,97.66
2022-10-06T23:23:56.194Z,97.69
2022-10-06T23:26:35.734Z,97.17
2022-10-06T23:29:11.796Z,96.97
2022-10-06T23:31:40.943Z,96.36
2022-10-06T23:34:10.153Z,96.58
2022-10-06T23:36:39.401Z,96.40
2022-10-06T23:39:08.899Z,96.04
2022-10-06T23:41:38.166Z,95.68
2022-10-06T23:44:15.323Z,95.47
2022-10-06T23:46:44.838Z,95.33
2022-10-06T23:49:14.214Z,95.25
2022-10-06T23:51:48.384Z,94.92
2022-10-06T23:54:17.499Z,94.47
2022-10-06T23:59:30.826Z,94.12
